sensor_id;sensor_type;location;lat;lon;timestamp;P1;durP1;ratioP1;P2;durP2;ratioP2
45236;SDS011;30973;51.442;3.580;2024-03-08T00:00:12;35.15;;;18.48;;
45236;SDS011;30973;51.442;3.580;2024-03-08T00:02:42;29.17;;;17.83;;
45236;SDS011;30973;51.442;3.580;2024-03-08T00:05:10;31.33;;;18.77;;
45236;SDS011;30973;51.442;3.580;2024-03-08T00:07:38;31.35;;;16.98;;
45236;SDS011;30973;51.442;3.580;2024-03-08T00:10:06;30.17;;;17.38;;
45236;SDS011;30973;51.442;3.580;2024-03-08T00:12:43;31.20;;;16.95;;
45236;SDS011;30973;51.442;3.580;2024-03-08T00:15:12;32.80;;;17.88;;
45236;SDS011;30973;51.442;3.580;2024-03-08T00:17:45;29.52;;;17.98;;
45236;SDS011;30973;51.442;3.580;2024-03-08T00:20:14;28.60;;;18.00;;
45236;SDS011;30973;51.442;3.580;2024-03-08T00:22:45;32.65;;;19.13;;
45236;SDS011;30973;51.442;3.580;2024-03-08T00:25:12;31.60;;;18.58;;
45236;SDS011;30973;51.442;3.580;2024-03-08T00:27:41;30.80;;;18.33;;
45236;SDS011;30973;51.442;3.580;2024-03-08T00:30:08;31.77;;;18.40;;
45236;SDS011;30973;51.442;3.580;2024-03-08T00:32:37;30.80;;;18.48;;
45236;SDS011;30973;51.442;3.580;2024-03-08T00:35:05;33.50;;;18.48;;
45236;SDS011;30973;51.442;3.580;2024-03-08T00:37:35;29.38;;;17.23;;
45236;SDS011;30973;51.442;3.580;2024-03-08T00:40:03;30.58;;;17.83;;
45236;SDS011;30973;51.442;3.580;2024-03-08T00:42:32;28.77;;;17.92;;
45236;SDS011;30973;51.442;3.580;2024-03-08T00:45:00;31.85;;;18.02;;
45236;SDS011;30973;51.442;3.580;2024-03-08T00:47:27;29.00;;;17.90;;
45236;SDS011;30973;51.442;3.580;2024-03-08T00:49:55;30.02;;;17.35;;
45236;SDS011;30973;51.442;3.580;2024-03-08T00:52:23;30.50;;;19.30;;
45236;SDS011;30973;51.442;3.580;2024-03-08T00:54:51;27.80;;;17.08;;
45236;SDS011;30973;51.442;3.580;2024-03-08T00:57:18;30.20;;;17.38;;
45236;SDS011;30973;51.442;3.580;2024-03-08T00:59:47;28.25;;;16.73;;
45236;SDS011;30973;51.442;3.580;2024-03-08T01:02:15;30.45;;;17.35;;
45236;SDS011;30973;51.442;3.580;2024-03-08T01:04:45;27.17;;;16.83;;
45236;SDS011;30973;51.442;3.580;2024-03-08T01:07:13;30.27;;;16.83;;
45236;SDS011;30973;51.442;3.580;2024-03-08T01:09:41;28.08;;;17.52;;
45236;SDS011;30973;51.442;3.580;2024-03-08T01:12:09;26.25;;;17.88;;
45236;SDS011;30973;51.442;3.580;2024-03-08T01:14:37;31.80;;;17.15;;
45236;SDS011;30973;51.442;3.580;2024-03-08T01:17:04;27.85;;;17.60;;
45236;SDS011;30973;51.442;3.580;2024-03-08T01:19:32;30.35;;;17.77;;
45236;SDS011;30973;51.442;3.580;2024-03-08T01:21:59;30.63;;;17.67;;
45236;SDS011;30973;51.442;3.580;2024-03-08T01:24:27;30.35;;;17.50;;
45236;SDS011;30973;51.442;3.580;2024-03-08T01:26:54;26.17;;;16.52;;
45236;SDS011;30973;51.442;3.580;2024-03-08T01:29:22;30.40;;;17.65;;
45236;SDS011;30973;51.442;3.580;2024-03-08T01:31:50;27.23;;;16.90;;
45236;SDS011;30973;51.442;3.580;2024-03-08T01:34:19;29.35;;;17.42;;
45236;SDS011;30973;51.442;3.580;2024-03-08T01:36:47;32.33;;;17.58;;
45236;SDS011;30973;51.442;3.580;2024-03-08T01:39:14;26.38;;;16.60;;
45236;SDS011;30973;51.442;3.580;2024-03-08T01:41:43;28.42;;;17.20;;
45236;SDS011;30973;51.442;3.580;2024-03-08T01:44:11;25.05;;;15.98;;
45236;SDS011;30973;51.442;3.580;2024-03-08T01:46:42;30.80;;;17.20;;
45236;SDS011;30973;51.442;3.580;2024-03-08T01:49:11;25.60;;;16.13;;
45236;SDS011;30973;51.442;3.580;2024-03-08T01:51:38;30.75;;;17.23;;
45236;SDS011;30973;51.442;3.580;2024-03-08T01:54:07;24.75;;;16.42;;
45236;SDS011;30973;51.442;3.580;2024-03-08T01:56:37;27.50;;;16.63;;
45236;SDS011;30973;51.442;3.580;2024-03-08T01:59:05;25.58;;;16.45;;
45236;SDS011;30973;51.442;3.580;2024-03-08T02:01:34;29.55;;;16.73;;
45236;SDS011;30973;51.442;3.580;2024-03-08T02:04:02;26.42;;;16.42;;
45236;SDS011;30973;51.442;3.580;2024-03-08T02:06:29;28.50;;;16.67;;
45236;SDS011;30973;51.442;3.580;2024-03-08T02:08:56;25.15;;;15.88;;
45236;SDS011;30973;51.442;3.580;2024-03-08T02:11:24;25.48;;;17.02;;
45236;SDS011;30973;51.442;3.580;2024-03-08T02:13:51;26.02;;;17.05;;
45236;SDS011;30973;51.442;3.580;2024-03-08T02:16:22;25.13;;;16.15;;
45236;SDS011;30973;51.442;3.580;2024-03-08T02:18:49;23.35;;;14.85;;
45236;SDS011;30973;51.442;3.580;2024-03-08T02:21:20;29.35;;;17.60;;
45236;SDS011;30973;51.442;3.580;2024-03-08T02:24:00;24.23;;;15.93;;
45236;SDS011;30973;51.442;3.580;2024-03-08T02:26:37;25.92;;;17.13;;
45236;SDS011;30973;51.442;3.580;2024-03-08T02:29:05;29.27;;;17.50;;
45236;SDS011;30973;51.442;3.580;2024-03-08T02:31:38;24.73;;;16.30;;
45236;SDS011;30973;51.442;3.580;2024-03-08T02:34:06;27.52;;;17.40;;
45236;SDS011;30973;51.442;3.580;2024-03-08T02:36:33;24.27;;;16.27;;
45236;SDS011;30973;51.442;3.580;2024-03-08T02:39:03;23.13;;;16.23;;
45236;SDS011;30973;51.442;3.580;2024-03-08T02:41:34;25.40;;;16.10;;
45236;SDS011;30973;51.442;3.580;2024-03-08T02:44:02;25.10;;;17.10;;
45236;SDS011;30973;51.442;3.580;2024-03-08T02:46:30;23.95;;;16.75;;
45236;SDS011;30973;51.442;3.580;2024-03-08T02:48:58;26.42;;;16.38;;
45236;SDS011;30973;51.442;3.580;2024-03-08T02:51:25;23.13;;;16.35;;
45236;SDS011;30973;51.442;3.580;2024-03-08T02:53:54;25.30;;;17.02;;
45236;SDS011;30973;51.442;3.580;2024-03-08T02:56:21;24.55;;;15.70;;
45236;SDS011;30973;51.442;3.580;2024-03-08T02:58:49;22.95;;;15.85;;
45236;SDS011;30973;51.442;3.580;2024-03-08T03:01:16;24.73;;;17.00;;
45236;SDS011;30973;51.442;3.580;2024-03-08T03:03:46;25.02;;;17.17;;
45236;SDS011;30973;51.442;3.580;2024-03-08T03:06:14;25.40;;;16.30;;
45236;SDS011;30973;51.442;3.580;2024-03-08T03:08:42;23.13;;;15.75;;
45236;SDS011;30973;51.442;3.580;2024-03-08T03:11:12;23.05;;;15.68;;
45236;SDS011;30973;51.442;3.580;2024-03-08T03:13:40;24.52;;;16.15;;
45236;SDS011;30973;51.442;3.580;2024-03-08T03:16:08;21.95;;;14.98;;
45236;SDS011;30973;51.442;3.580;2024-03-08T03:18:36;24.63;;;16.35;;
45236;SDS011;30973;51.442;3.580;2024-03-08T03:21:04;22.67;;;15.18;;
45236;SDS011;30973;51.442;3.580;2024-03-08T03:23:34;22.40;;;14.90;;
45236;SDS011;30973;51.442;3.580;2024-03-08T03:26:02;21.92;;;15.75;;
45236;SDS011;30973;51.442;3.580;2024-03-08T03:28:30;22.17;;;15.52;;
45236;SDS011;30973;51.442;3.580;2024-03-08T03:30:59;20.65;;;15.68;;
45236;SDS011;30973;51.442;3.580;2024-03-08T03:33:55;23.98;;;14.90;;
45236;SDS011;30973;51.442;3.580;2024-03-08T03:36:28;22.30;;;16.02;;
45236;SDS011;30973;51.442;3.580;2024-03-08T03:38:56;23.00;;;15.75;;
45236;SDS011;30973;51.442;3.580;2024-03-08T03:41:33;22.30;;;14.65;;
45236;SDS011;30973;51.442;3.580;2024-03-08T03:44:01;22.73;;;15.75;;
45236;SDS011;30973;51.442;3.580;2024-03-08T03:46:28;24.45;;;15.52;;
45236;SDS011;30973;51.442;3.580;2024-03-08T03:48:56;22.85;;;15.48;;
45236;SDS011;30973;51.442;3.580;2024-03-08T03:51:23;22.23;;;15.32;;
45236;SDS011;30973;51.442;3.580;2024-03-08T03:53:51;23.73;;;15.63;;
45236;SDS011;30973;51.442;3.580;2024-03-08T03:56:24;23.15;;;16.25;;
45236;SDS011;30973;51.442;3.580;2024-03-08T03:58:51;23.40;;;16.17;;
45236;SDS011;30973;51.442;3.580;2024-03-08T04:01:19;23.08;;;15.15;;
45236;SDS011;30973;51.442;3.580;2024-03-08T04:03:46;21.80;;;15.70;;
45236;SDS011;30973;51.442;3.580;2024-03-08T04:06:14;26.30;;;15.77;;
45236;SDS011;30973;51.442;3.580;2024-03-08T04:08:41;22.25;;;15.57;;
45236;SDS011;30973;51.442;3.580;2024-03-08T04:11:09;23.73;;;16.75;;
45236;SDS011;30973;51.442;3.580;2024-03-08T04:13:37;22.98;;;15.80;;
45236;SDS011;30973;51.442;3.580;2024-03-08T04:16:04;23.70;;;15.45;;
45236;SDS011;30973;51.442;3.580;2024-03-08T04:18:34;25.80;;;16.23;;
45236;SDS011;30973;51.442;3.580;2024-03-08T04:21:02;23.17;;;15.77;;
45236;SDS011;30973;51.442;3.580;2024-03-08T04:23:35;21.92;;;15.20;;
45236;SDS011;30973;51.442;3.580;2024-03-08T04:26:03;22.25;;;15.30;;
45236;SDS011;30973;51.442;3.580;2024-03-08T04:28:32;26.08;;;16.52;;
45236;SDS011;30973;51.442;3.580;2024-03-08T04:30:59;21.92;;;15.48;;
45236;SDS011;30973;51.442;3.580;2024-03-08T04:33:27;22.75;;;16.25;;
45236;SDS011;30973;51.442;3.580;2024-03-08T04:37:11;20.83;;;15.07;;
45236;SDS011;30973;51.442;3.580;2024-03-08T04:39:49;20.70;;;14.93;;
45236;SDS011;30973;51.442;3.580;2024-03-08T04:42:16;23.25;;;15.45;;
45236;SDS011;30973;51.442;3.580;2024-03-08T04:44:45;23.10;;;15.55;;
45236;SDS011;30973;51.442;3.580;2024-03-08T04:47:12;21.67;;;15.68;;
45236;SDS011;30973;51.442;3.580;2024-03-08T04:49:40;23.95;;;16.25;;
45236;SDS011;30973;51.442;3.580;2024-03-08T04:52:07;21.90;;;15.00;;
45236;SDS011;30973;51.442;3.580;2024-03-08T04:54:35;23.45;;;15.50;;
45236;SDS011;30973;51.442;3.580;2024-03-08T04:57:02;21.08;;;15.02;;
45236;SDS011;30973;51.442;3.580;2024-03-08T04:59:34;21.33;;;15.32;;
45236;SDS011;30973;51.442;3.580;2024-03-08T05:02:03;21.85;;;15.25;;
45236;SDS011;30973;51.442;3.580;2024-03-08T05:04:30;22.60;;;16.10;;
45236;SDS011;30973;51.442;3.580;2024-03-08T05:06:58;21.95;;;15.70;;
45236;SDS011;30973;51.442;3.580;2024-03-08T05:09:27;23.83;;;16.95;;
45236;SDS011;30973;51.442;3.580;2024-03-08T05:11:55;21.52;;;16.02;;
45236;SDS011;30973;51.442;3.580;2024-03-08T05:14:25;20.77;;;15.27;;
45236;SDS011;30973;51.442;3.580;2024-03-08T05:16:52;24.75;;;15.35;;
45236;SDS011;30973;51.442;3.580;2024-03-08T05:19:20;23.90;;;15.85;;
45236;SDS011;30973;51.442;3.580;2024-03-08T05:21:48;20.98;;;15.15;;
45236;SDS011;30973;51.442;3.580;2024-03-08T05:24:16;23.20;;;14.85;;
45236;SDS011;30973;51.442;3.580;2024-03-08T05:26:45;23.65;;;15.95;;
45236;SDS011;30973;51.442;3.580;2024-03-08T05:29:13;22.27;;;15.85;;
45236;SDS011;30973;51.442;3.580;2024-03-08T05:31:50;20.92;;;15.63;;
45236;SDS011;30973;51.442;3.580;2024-03-08T05:34:21;24.30;;;15.73;;
45236;SDS011;30973;51.442;3.580;2024-03-08T05:36:49;23.85;;;15.23;;
45236;SDS011;30973;51.442;3.580;2024-03-08T05:39:17;23.90;;;17.00;;
45236;SDS011;30973;51.442;3.580;2024-03-08T05:41:46;22.23;;;15.55;;
45236;SDS011;30973;51.442;3.580;2024-03-08T05:47:30;21.70;;;14.85;;
45236;SDS011;30973;51.442;3.580;2024-03-08T05:50:01;21.20;;;15.10;;
45236;SDS011;30973;51.442;3.580;2024-03-08T05:52:29;22.08;;;15.35;;
45236;SDS011;30973;51.442;3.580;2024-03-08T05:54:57;22.67;;;15.98;;
45236;SDS011;30973;51.442;3.580;2024-03-08T05:57:24;20.58;;;15.70;;
45236;SDS011;30973;51.442;3.580;2024-03-08T05:59:53;22.20;;;15.45;;
45236;SDS011;30973;51.442;3.580;2024-03-08T06:02:21;22.48;;;16.65;;
45236;SDS011;30973;51.442;3.580;2024-03-08T06:04:48;22.85;;;15.60;;
45236;SDS011;30973;51.442;3.580;2024-03-08T06:07:16;22.80;;;16.05;;
45236;SDS011;30973;51.442;3.580;2024-03-08T06:09:45;22.13;;;16.02;;
45236;SDS011;30973;51.442;3.580;2024-03-08T06:12:23;23.55;;;16.70;;
45236;SDS011;30973;51.442;3.580;2024-03-08T06:14:55;22.63;;;15.65;;
45236;SDS011;30973;51.442;3.580;2024-03-08T06:17:23;23.48;;;15.48;;
45236;SDS011;30973;51.442;3.580;2024-03-08T06:19:53;22.45;;;15.63;;
45236;SDS011;30973;51.442;3.580;2024-03-08T06:22:24;24.83;;;16.10;;
45236;SDS011;30973;51.442;3.580;2024-03-08T06:24:51;23.58;;;14.80;;
45236;SDS011;30973;51.442;3.580;2024-03-08T06:27:20;22.85;;;15.68;;
45236;SDS011;30973;51.442;3.580;2024-03-08T06:29:48;23.75;;;15.85;;
45236;SDS011;30973;51.442;3.580;2024-03-08T06:32:15;21.70;;;16.35;;
45236;SDS011;30973;51.442;3.580;2024-03-08T06:34:43;23.60;;;15.73;;
45236;SDS011;30973;51.442;3.580;2024-03-08T06:37:10;20.33;;;14.80;;
45236;SDS011;30973;51.442;3.580;2024-03-08T06:39:38;21.52;;;15.25;;
45236;SDS011;30973;51.442;3.580;2024-03-08T06:42:06;21.65;;;15.50;;
45236;SDS011;30973;51.442;3.580;2024-03-08T06:44:35;21.95;;;15.20;;
45236;SDS011;30973;51.442;3.580;2024-03-08T06:47:04;22.40;;;15.85;;
45236;SDS011;30973;51.442;3.580;2024-03-08T06:49:32;25.45;;;15.70;;
45236;SDS011;30973;51.442;3.580;2024-03-08T06:52:00;22.92;;;15.43;;
45236;SDS011;30973;51.442;3.580;2024-03-08T06:54:27;21.33;;;15.63;;
45236;SDS011;30973;51.442;3.580;2024-03-08T06:56:55;20.45;;;15.52;;
45236;SDS011;30973;51.442;3.580;2024-03-08T06:59:23;23.80;;;16.42;;
45236;SDS011;30973;51.442;3.580;2024-03-08T07:01:50;22.52;;;15.45;;
45236;SDS011;30973;51.442;3.580;2024-03-08T07:04:20;21.27;;;14.95;;
45236;SDS011;30973;51.442;3.580;2024-03-08T07:06:51;22.38;;;15.40;;
45236;SDS011;30973;51.442;3.580;2024-03-08T07:09:18;22.30;;;15.02;;
45236;SDS011;30973;51.442;3.580;2024-03-08T07:11:45;21.17;;;15.13;;
45236;SDS011;30973;51.442;3.580;2024-03-08T07:14:13;22.35;;;16.05;;
45236;SDS011;30973;51.442;3.580;2024-03-08T07:16:42;22.00;;;16.00;;
45236;SDS011;30973;51.442;3.580;2024-03-08T07:19:10;23.33;;;15.20;;
45236;SDS011;30973;51.442;3.580;2024-03-08T07:21:38;24.05;;;15.93;;
45236;SDS011;30973;51.442;3.580;2024-03-08T07:24:06;24.58;;;15.27;;
45236;SDS011;30973;51.442;3.580;2024-03-08T07:26:52;25.40;;;15.38;;
45236;SDS011;30973;51.442;3.580;2024-03-08T07:29:20;22.52;;;15.43;;
45236;SDS011;30973;51.442;3.580;2024-03-08T07:31:47;23.65;;;15.82;;
45236;SDS011;30973;51.442;3.580;2024-03-08T07:34:28;18.88;;;14.60;;
45236;SDS011;30973;51.442;3.580;2024-03-08T07:36:58;24.75;;;15.75;;
45236;SDS011;30973;51.442;3.580;2024-03-08T07:39:26;22.73;;;15.25;;
45236;SDS011;30973;51.442;3.580;2024-03-08T07:41:53;23.30;;;16.17;;
45236;SDS011;30973;51.442;3.580;2024-03-08T07:44:21;21.80;;;14.95;;
45236;SDS011;30973;51.442;3.580;2024-03-08T07:46:49;23.40;;;15.50;;
45236;SDS011;30973;51.442;3.580;2024-03-08T07:49:19;18.98;;;14.35;;
45236;SDS011;30973;51.442;3.580;2024-03-08T07:51:46;20.90;;;15.88;;
45236;SDS011;30973;51.442;3.580;2024-03-08T07:54:15;22.35;;;15.25;;
45236;SDS011;30973;51.442;3.580;2024-03-08T07:56:46;19.73;;;15.05;;
45236;SDS011;30973;51.442;3.580;2024-03-08T07:59:48;22.27;;;15.82;;
45236;SDS011;30973;51.442;3.580;2024-03-08T08:02:15;21.65;;;15.77;;
45236;SDS011;30973;51.442;3.580;2024-03-08T08:04:43;23.08;;;15.80;;
45236;SDS011;30973;51.442;3.580;2024-03-08T08:07:14;22.80;;;15.65;;
45236;SDS011;30973;51.442;3.580;2024-03-08T08:09:43;23.58;;;16.08;;
45236;SDS011;30973;51.442;3.580;2024-03-08T08:12:11;21.73;;;14.43;;
45236;SDS011;30973;51.442;3.580;2024-03-08T08:14:38;24.02;;;15.32;;
45236;SDS011;30973;51.442;3.580;2024-03-08T08:17:07;23.10;;;15.90;;
45236;SDS011;30973;51.442;3.580;2024-03-08T08:19:35;22.60;;;15.30;;
45236;SDS011;30973;51.442;3.580;2024-03-08T08:22:03;23.35;;;14.90;;
45236;SDS011;30973;51.442;3.580;2024-03-08T08:24:30;25.35;;;15.48;;
45236;SDS011;30973;51.442;3.580;2024-03-08T08:26:58;24.08;;;15.15;;
45236;SDS011;30973;51.442;3.580;2024-03-08T08:29:25;21.90;;;15.23;;
45236;SDS011;30973;51.442;3.580;2024-03-08T08:31:53;20.65;;;15.02;;
45236;SDS011;30973;51.442;3.580;2024-03-08T08:34:21;21.25;;;14.65;;
45236;SDS011;30973;51.442;3.580;2024-03-08T08:36:50;21.75;;;15.18;;
45236;SDS011;30973;51.442;3.580;2024-03-08T08:39:19;23.17;;;14.48;;
45236;SDS011;30973;51.442;3.580;2024-03-08T08:41:49;18.20;;;14.57;;
45236;SDS011;30973;51.442;3.580;2024-03-08T08:44:19;23.92;;;15.63;;
45236;SDS011;30973;51.442;3.580;2024-03-08T08:46:46;22.13;;;14.27;;
45236;SDS011;30973;51.442;3.580;2024-03-08T08:49:14;19.85;;;15.23;;
45236;SDS011;30973;51.442;3.580;2024-03-08T08:51:50;21.85;;;15.60;;
45236;SDS011;30973;51.442;3.580;2024-03-08T08:54:20;20.42;;;13.63;;
45236;SDS011;30973;51.442;3.580;2024-03-08T08:56:48;20.42;;;14.45;;
45236;SDS011;30973;51.442;3.580;2024-03-08T08:59:16;22.05;;;16.10;;
45236;SDS011;30973;51.442;3.580;2024-03-08T09:01:49;20.25;;;14.77;;
45236;SDS011;30973;51.442;3.580;2024-03-08T09:04:18;19.20;;;14.63;;
45236;SDS011;30973;51.442;3.580;2024-03-08T09:06:48;20.75;;;14.65;;
45236;SDS011;30973;51.442;3.580;2024-03-08T09:10:01;19.05;;;14.02;;
45236;SDS011;30973;51.442;3.580;2024-03-08T09:12:42;20.23;;;14.70;;
45236;SDS011;30973;51.442;3.580;2024-03-08T09:15:10;19.65;;;15.20;;
45236;SDS011;30973;51.442;3.580;2024-03-08T09:17:38;21.50;;;13.85;;
45236;SDS011;30973;51.442;3.580;2024-03-08T09:20:11;20.58;;;13.38;;
45236;SDS011;30973;51.442;3.580;2024-03-08T09:22:45;19.13;;;14.15;;
45236;SDS011;30973;51.442;3.580;2024-03-08T09:25:13;18.08;;;14.15;;
45236;SDS011;30973;51.442;3.580;2024-03-08T09:27:43;18.98;;;13.95;;
45236;SDS011;30973;51.442;3.580;2024-03-08T09:30:12;18.65;;;13.40;;
45236;SDS011;30973;51.442;3.580;2024-03-08T09:32:41;19.55;;;13.93;;
45236;SDS011;30973;51.442;3.580;2024-03-08T09:35:10;17.73;;;13.23;;
45236;SDS011;30973;51.442;3.580;2024-03-08T09:37:37;20.00;;;13.20;;
45236;SDS011;30973;51.442;3.580;2024-03-08T09:40:05;17.55;;;13.13;;
45236;SDS011;30973;51.442;3.580;2024-03-08T09:42:37;18.17;;;12.85;;
45236;SDS011;30973;51.442;3.580;2024-03-08T09:45:05;19.05;;;13.65;;
45236;SDS011;30973;51.442;3.580;2024-03-08T09:47:40;17.30;;;13.23;;
45236;SDS011;30973;51.442;3.580;2024-03-08T09:50:08;18.20;;;13.10;;
45236;SDS011;30973;51.442;3.580;2024-03-08T09:52:39;23.17;;;13.75;;
45236;SDS011;30973;51.442;3.580;2024-03-08T09:55:07;17.33;;;13.63;;
45236;SDS011;30973;51.442;3.580;2024-03-08T09:57:38;17.08;;;12.10;;
45236;SDS011;30973;51.442;3.580;2024-03-08T10:00:05;21.35;;;13.30;;
45236;SDS011;30973;51.442;3.580;2024-03-08T10:03:02;19.77;;;13.07;;
45236;SDS011;30973;51.442;3.580;2024-03-08T10:05:30;18.13;;;13.48;;
45236;SDS011;30973;51.442;3.580;2024-03-08T10:08:01;16.30;;;12.27;;
45236;SDS011;30973;51.442;3.580;2024-03-08T10:10:32;18.52;;;13.05;;
45236;SDS011;30973;51.442;3.580;2024-03-08T10:13:00;17.25;;;12.13;;
45236;SDS011;30973;51.442;3.580;2024-03-08T10:15:28;16.75;;;12.02;;
45236;SDS011;30973;51.442;3.580;2024-03-08T10:18:02;15.27;;;12.18;;
45236;SDS011;30973;51.442;3.580;2024-03-08T10:24:02;16.83;;;13.00;;
45236;SDS011;30973;51.442;3.580;2024-03-08T10:26:31;16.27;;;11.85;;
45236;SDS011;30973;51.442;3.580;2024-03-08T10:28:58;16.58;;;12.55;;
45236;SDS011;30973;51.442;3.580;2024-03-08T10:31:26;19.30;;;13.27;;
45236;SDS011;30973;51.442;3.580;2024-03-08T10:33:53;18.30;;;12.88;;
45236;SDS011;30973;51.442;3.580;2024-03-08T10:36:21;16.95;;;13.27;;
45236;SDS011;30973;51.442;3.580;2024-03-08T10:38:50;17.52;;;12.27;;
45236;SDS011;30973;51.442;3.580;2024-03-08T10:41:19;17.00;;;12.63;;
45236;SDS011;30973;51.442;3.580;2024-03-08T10:49:10;16.60;;;12.00;;
45236;SDS011;30973;51.442;3.580;2024-03-08T10:51:40;15.15;;;11.88;;
45236;SDS011;30973;51.442;3.580;2024-03-08T10:54:09;15.85;;;12.27;;
45236;SDS011;30973;51.442;3.580;2024-03-08T10:56:37;16.10;;;12.48;;
45236;SDS011;30973;51.442;3.580;2024-03-08T10:59:08;16.52;;;12.15;;
45236;SDS011;30973;51.442;3.580;2024-03-08T11:01:35;16.33;;;11.93;;
45236;SDS011;30973;51.442;3.580;2024-03-08T11:04:04;16.38;;;12.02;;
45236;SDS011;30973;51.442;3.580;2024-03-08T11:09:10;16.83;;;12.20;;
45236;SDS011;30973;51.442;3.580;2024-03-08T11:11:43;14.90;;;11.60;;
45236;SDS011;30973;51.442;3.580;2024-03-08T11:16:57;15.15;;;11.45;;
45236;SDS011;30973;51.442;3.580;2024-03-08T11:19:25;15.77;;;12.10;;
45236;SDS011;30973;51.442;3.580;2024-03-08T11:21:59;16.13;;;11.70;;
45236;SDS011;30973;51.442;3.580;2024-03-08T11:24:27;16.27;;;11.45;;
45236;SDS011;30973;51.442;3.580;2024-03-08T11:26:56;13.60;;;11.10;;
45236;SDS011;30973;51.442;3.580;2024-03-08T11:32:44;14.45;;;11.55;;
45236;SDS011;30973;51.442;3.580;2024-03-08T11:35:21;13.18;;;10.88;;
45236;SDS011;30973;51.442;3.580;2024-03-08T11:37:50;18.05;;;12.63;;
45236;SDS011;30973;51.442;3.580;2024-03-08T11:40:18;16.27;;;12.43;;
45236;SDS011;30973;51.442;3.580;2024-03-08T11:42:47;14.10;;;11.48;;
45236;SDS011;30973;51.442;3.580;2024-03-08T11:45:15;15.60;;;11.70;;
45236;SDS011;30973;51.442;3.580;2024-03-08T11:47:44;15.68;;;11.57;;
45236;SDS011;30973;51.442;3.580;2024-03-08T11:50:13;18.85;;;12.02;;
45236;SDS011;30973;51.442;3.580;2024-03-08T11:52:41;19.15;;;12.77;;
45236;SDS011;30973;51.442;3.580;2024-03-08T11:55:09;15.35;;;11.25;;
45236;SDS011;30973;51.442;3.580;2024-03-08T11:57:39;16.80;;;11.10;;
45236;SDS011;30973;51.442;3.580;2024-03-08T12:00:18;16.27;;;11.90;;
45236;SDS011;30973;51.442;3.580;2024-03-08T12:03:05;14.32;;;10.98;;
45236;SDS011;30973;51.442;3.580;2024-03-08T12:05:33;15.15;;;11.48;;
45236;SDS011;30973;51.442;3.580;2024-03-08T12:08:04;14.70;;;11.32;;
45236;SDS011;30973;51.442;3.580;2024-03-08T12:10:33;16.30;;;10.73;;
45236;SDS011;30973;51.442;3.580;2024-03-08T12:13:04;15.82;;;11.85;;
45236;SDS011;30973;51.442;3.580;2024-03-08T12:15:39;15.35;;;11.23;;
45236;SDS011;30973;51.442;3.580;2024-03-08T12:18:06;14.00;;;10.80;;
45236;SDS011;30973;51.442;3.580;2024-03-08T12:20:37;15.95;;;11.73;;
45236;SDS011;30973;51.442;3.580;2024-03-08T12:23:05;15.55;;;11.32;;
45236;SDS011;30973;51.442;3.580;2024-03-08T12:25:33;15.10;;;11.35;;
45236;SDS011;30973;51.442;3.580;2024-03-08T12:28:11;18.10;;;12.02;;
45236;SDS011;30973;51.442;3.580;2024-03-08T12:30:49;15.57;;;11.20;;
45236;SDS011;30973;51.442;3.580;2024-03-08T12:37:00;15.52;;;11.75;;
45236;SDS011;30973;51.442;3.580;2024-03-08T12:39:40;16.27;;;11.43;;
45236;SDS011;30973;51.442;3.580;2024-03-08T12:42:17;16.52;;;11.70;;
45236;SDS011;30973;51.442;3.580;2024-03-08T12:44:45;15.02;;;10.88;;
45236;SDS011;30973;51.442;3.580;2024-03-08T12:47:13;19.45;;;11.77;;
45236;SDS011;30973;51.442;3.580;2024-03-08T12:49:40;16.02;;;11.75;;
45236;SDS011;30973;51.442;3.580;2024-03-08T12:52:08;15.30;;;11.25;;
45236;SDS011;30973;51.442;3.580;2024-03-08T12:54:36;20.17;;;12.63;;
45236;SDS011;30973;51.442;3.580;2024-03-08T12:57:04;14.60;;;11.02;;
45236;SDS011;30973;51.442;3.580;2024-03-08T12:59:34;16.05;;;11.73;;
45236;SDS011;30973;51.442;3.580;2024-03-08T13:02:07;14.40;;;11.43;;
45236;SDS011;30973;51.442;3.580;2024-03-08T13:04:37;16.58;;;12.43;;
45236;SDS011;30973;51.442;3.580;2024-03-08T13:07:05;15.95;;;11.90;;
45236;SDS011;30973;51.442;3.580;2024-03-08T13:09:32;15.95;;;10.93;;
45236;SDS011;30973;51.442;3.580;2024-03-08T13:12:04;14.73;;;11.48;;
45236;SDS011;30973;51.442;3.580;2024-03-08T13:14:32;16.83;;;11.13;;
45236;SDS011;30973;51.442;3.580;2024-03-08T13:17:02;14.27;;;11.68;;
45236;SDS011;30973;51.442;3.580;2024-03-08T13:19:30;16.27;;;11.73;;
45236;SDS011;30973;51.442;3.580;2024-03-08T13:21:58;14.48;;;10.68;;
45236;SDS011;30973;51.442;3.580;2024-03-08T13:24:25;18.40;;;11.70;;
45236;SDS011;30973;51.442;3.580;2024-03-08T13:26:53;13.75;;;10.68;;
45236;SDS011;30973;51.442;3.580;2024-03-08T13:29:24;16.10;;;11.32;;
45236;SDS011;30973;51.442;3.580;2024-03-08T13:31:51;16.42;;;11.85;;
45236;SDS011;30973;51.442;3.580;2024-03-08T13:34:22;14.27;;;11.25;;
45236;SDS011;30973;51.442;3.580;2024-03-08T13:36:56;16.88;;;11.65;;
45236;SDS011;30973;51.442;3.580;2024-03-08T13:39:27;19.90;;;12.45;;
45236;SDS011;30973;51.442;3.580;2024-03-08T13:41:55;20.88;;;11.80;;
45236;SDS011;30973;51.442;3.580;2024-03-08T13:44:23;16.38;;;11.70;;
45236;SDS011;30973;51.442;3.580;2024-03-08T13:46:52;16.60;;;11.68;;
45236;SDS011;30973;51.442;3.580;2024-03-08T13:49:20;17.23;;;11.90;;
45236;SDS011;30973;51.442;3.580;2024-03-08T13:51:47;18.25;;;12.00;;
45236;SDS011;30973;51.442;3.580;2024-03-08T13:54:16;17.33;;;12.02;;
45236;SDS011;30973;51.442;3.580;2024-03-08T13:56:44;19.27;;;12.23;;
45236;SDS011;30973;51.442;3.580;2024-03-08T13:59:12;16.38;;;11.43;;
45236;SDS011;30973;51.442;3.580;2024-03-08T14:01:40;16.92;;;11.75;;
45236;SDS011;30973;51.442;3.580;2024-03-08T14:04:10;16.05;;;11.60;;
45236;SDS011;30973;51.442;3.580;2024-03-08T14:06:43;16.08;;;12.00;;
45236;SDS011;30973;51.442;3.580;2024-03-08T14:09:13;18.52;;;11.75;;
45236;SDS011;30973;51.442;3.580;2024-03-08T14:11:43;17.27;;;11.95;;
45236;SDS011;30973;51.442;3.580;2024-03-08T14:14:11;15.38;;;11.25;;
45236;SDS011;30973;51.442;3.580;2024-03-08T14:16:41;16.15;;;11.95;;
45236;SDS011;30973;51.442;3.580;2024-03-08T14:19:10;17.88;;;12.07;;
45236;SDS011;30973;51.442;3.580;2024-03-08T14:21:37;15.18;;;11.98;;
45236;SDS011;30973;51.442;3.580;2024-03-08T14:24:06;17.60;;;11.65;;
45236;SDS011;30973;51.442;3.580;2024-03-08T14:26:33;14.63;;;11.30;;
45236;SDS011;30973;51.442;3.580;2024-03-08T14:29:01;15.13;;;11.82;;
45236;SDS011;30973;51.442;3.580;2024-03-08T14:31:28;16.42;;;12.40;;
45236;SDS011;30973;51.442;3.580;2024-03-08T14:33:57;16.73;;;11.80;;
45236;SDS011;30973;51.442;3.580;2024-03-08T14:36:25;15.50;;;11.32;;
45236;SDS011;30973;51.442;3.580;2024-03-08T14:38:52;15.55;;;12.02;;
45236;SDS011;30973;51.442;3.580;2024-03-08T14:41:23;17.80;;;11.75;;
45236;SDS011;30973;51.442;3.580;2024-03-08T14:43:50;17.80;;;11.85;;
45236;SDS011;30973;51.442;3.580;2024-03-08T14:46:19;15.70;;;11.82;;
45236;SDS011;30973;51.442;3.580;2024-03-08T14:48:47;17.60;;;11.90;;
45236;SDS011;30973;51.442;3.580;2024-03-08T14:51:18;16.55;;;12.40;;
45236;SDS011;30973;51.442;3.580;2024-03-08T14:53:51;16.45;;;11.85;;
45236;SDS011;30973;51.442;3.580;2024-03-08T14:56:18;16.10;;;11.20;;
45236;SDS011;30973;51.442;3.580;2024-03-08T14:58:46;14.63;;;11.07;;